Skip Navigation Links Skip Navigation Links

Current Weather

Sonoma County, Santa Rosa, Calif.

For information only: do not use for flight planning or navigation.
Latest weather
Observation time Thursday, December 3, 2020 10:53 PM PST
Local time Thursday, December 3, 2020 11:54 PM PST
Flight conditions Visual Meteorological Conditions
Winds
Wind direction Northwest (320°)
Wind speed 5 mph
Visibility 8 mi.
Sky condition
Ceiling unlimited
Sky clear
Temperature 40°F
Dewpoint 38°F
Altimeter 30.32 in.Hg
Derived measurements
Relative humidity 93%
Wind chill 37°F
Density altitude -1502 ft.
Sea-level pressure 30.30 in.Hg
Remarks
Fully automated report.
Automated weather observing station with precipitation discriminator.
METAR KSTS 040653Z AUTO 32004KT 8SM CLR 04/03 A3032 RMK AO2 SLP261 T00440033

Settings

Location code

InnerDrive.Weather 4.0.6770.0 Release CLR 4.0.30319.42000
Copyright ©2018 Inner Drive Technology. All rights reserved. Portions Copyright ©1986-2018 David Braverman.

Find weather

Site navigation


Skip Navigation Links

Place info

Page info

PayPal - The safer, easier way to pay online!

Return home.

Copyright ©2020 Inner Drive Technology. Purveyors of fine, hand-crafted computer software. Page printed 2020-12-04T07:54:35 UTC.